Time;durP1;ratioP1;P1;durP2;ratioP2;P2;SDS_P1;SDS_P2;PMS_P1;PMS_P2;Temp;Humidity;BMP_temperature;BMP_pressure;BME280_temperature;BME280_humidity;BME280_pressure;Samples;Min_cycle;Max_cycle;Signal;HPM_P1;HPM_P2
2023/03/06 00:00:49;;;;;;;9.80;6.35;;;;;;;3.24;89.03;100771.34;5055569;28;20100;-72
2023/03/06 00:03:16;;;;;;;10.27;5.47;;;;;;;3.22;89.21;100767.88;5045583;28;20042;-72
2023/03/06 00:05:44;;;;;;;8.82;5.70;;;;;;;3.21;89.32;100763.50;5047280;28;20079;-72
2023/03/06 00:08:11;;;;;;;9.75;5.60;;;;;;;3.21;89.47;100762.63;5044921;28;20037;-73
2023/03/06 00:10:39;;;;;;;7.40;5.20;;;;;;;3.20;89.31;100755.72;5025560;28;20069;-73
2023/03/06 00:13:12;;;;;;;7.30;5.28;;;;;;;3.17;89.23;100756.56;5027631;28;21504;-72
2023/03/06 00:15:40;;;;;;;7.28;4.78;;;;;;;3.15;89.22;100757.44;5048299;28;20042;-72
2023/03/06 00:18:07;;;;;;;7.15;5.05;;;;;;;3.11;89.20;100753.97;5037862;28;20049;-72
2023/03/06 00:20:35;;;;;;;7.32;5.10;;;;;;;3.06;89.28;100753.09;5028220;28;20045;-72
2023/03/06 00:23:03;;;;;;;6.68;4.93;;;;;;;3.00;89.23;100750.50;5047856;28;20067;-72
2023/03/06 00:25:30;;;;;;;6.60;4.70;;;;;;;2.95;89.28;100751.38;5033565;28;20136;-72
2023/03/06 00:27:57;;;;;;;8.82;4.75;;;;;;;2.93;89.29;100753.13;5040215;28;20599;-71
2023/03/06 00:30:27;;;;;;;7.15;4.72;;;;;;;2.89;89.52;100751.38;5038931;28;20103;-72
2023/03/06 00:32:54;;;;;;;7.45;4.97;;;;;;;2.89;89.70;100745.31;5045224;28;20045;-71
2023/03/06 00:35:22;;;;;;;7.75;4.78;;;;;;;2.91;90.24;100744.44;5041331;28;20037;-72
2023/03/06 00:37:49;;;;;;;6.93;5.10;;;;;;;2.94;90.41;100740.97;5033846;28;20619;-72
2023/03/06 00:40:19;;;;;;;7.65;5.22;;;;;;;2.98;90.44;100740.09;5032170;28;20049;-71
2023/03/06 00:42:47;;;;;;;8.63;6.10;;;;;;;2.99;90.21;100735.75;5032956;28;20133;-71
2023/03/06 00:45:14;;;;;;;7.55;5.63;;;;;;;2.93;90.04;100734.00;5025517;28;20045;-72
2023/03/06 00:47:42;;;;;;;8.80;6.00;;;;;;;2.86;90.23;100721.88;5039843;28;20041;-72
2023/03/06 00:50:10;;;;;;;9.90;5.93;;;;;;;2.79;90.16;100724.50;5040306;28;20052;-72
2023/03/06 00:52:37;;;;;;;10.45;5.45;;;;;;;2.75;90.26;100722.75;5032536;28;20034;-72
2023/03/06 00:55:05;;;;;;;11.90;5.85;;;;;;;2.70;90.31;100708.84;5030493;28;20041;-73
2023/03/06 00:57:32;;;;;;;7.72;5.60;;;;;;;2.66;90.48;100716.66;5041002;28;20038;-72
2023/03/06 00:59:59;;;;;;;7.07;5.60;;;;;;;2.65;90.62;100715.78;5039863;28;20049;-72
2023/03/06 01:02:26;;;;;;;8.02;6.40;;;;;;;2.64;90.94;100720.16;5031976;28;20034;-71
2023/03/06 01:04:53;;;;;;;12.10;6.43;;;;;;;2.67;90.97;100714.06;5044215;28;20171;-71
2023/03/06 01:07:21;;;;;;;8.80;6.72;;;;;;;2.67;91.11;100714.06;5035775;28;20124;-71
2023/03/06 01:09:49;;;;;;;11.73;7.20;;;;;;;2.64;91.27;100714.06;5026642;28;20426;-70
2023/03/06 01:12:16;;;;;;;13.95;7.47;;;;;;;2.59;91.41;100713.19;5027495;28;20045;-70
2023/03/06 01:14:46;;;;;;;11.02;7.75;;;;;;;2.59;91.56;100703.63;5039257;28;20112;-70
2023/03/06 01:17:14;;;;;;;9.75;7.95;;;;;;;2.52;91.57;100709.72;5041544;28;20041;-70
2023/03/06 01:19:42;;;;;;;11.27;8.52;;;;;;;2.51;91.70;100707.97;5042316;28;20144;-70
2023/03/06 01:22:12;;;;;;;14.85;9.65;;;;;;;2.51;91.90;100704.50;5045159;28;20088;-70
2023/03/06 01:24:39;;;;;;;14.85;9.10;;;;;;;2.46;91.66;100702.78;5025476;28;20053;-70
2023/03/06 01:27:06;;;;;;;12.00;8.65;;;;;;;2.44;91.83;100711.44;5039292;28;20053;-70
2023/03/06 01:29:34;;;;;;;14.50;9.77;;;;;;;2.41;91.83;100699.28;5054595;28;20077;-72
2023/03/06 01:32:01;;;;;;;14.25;9.50;;;;;;;2.43;92.06;100705.38;5033391;28;20152;-71
2023/03/06 01:34:29;;;;;;;16.30;9.98;;;;;;;2.43;92.38;100705.38;5041815;28;20063;-71
2023/03/06 01:36:56;;;;;;;16.88;9.85;;;;;;;2.42;92.57;100703.63;5040081;28;20041;-71
2023/03/06 01:39:23;;;;;;;15.27;10.00;;;;;;;2.41;92.66;100699.28;5040871;28;20148;-70
2023/03/06 01:41:51;;;;;;;14.70;10.13;;;;;;;2.38;92.86;100699.31;5044047;28;20044;-71
2023/03/06 01:44:18;;;;;;;15.70;10.25;;;;;;;2.39;92.94;100690.59;5025642;28;20108;-71
2023/03/06 01:46:46;;;;;;;17.77;10.90;;;;;;;2.37;92.93;100692.34;5037824;28;20117;-72
2023/03/06 01:49:34;;;;;;;16.33;10.48;;;;;;;2.41;92.95;100693.22;5036158;28;20074;-70
2023/03/06 01:52:07;;;;;;;19.85;10.23;;;;;;;2.41;92.81;100685.41;5025005;28;20164;-70
2023/03/06 01:55:08;;;;;;;16.42;11.18;;;;;;;2.40;92.62;100684.53;5055377;28;20038;-71
2023/03/06 01:57:43;;;;;;;16.92;10.73;;;;;;;2.37;92.31;100666.34;5040687;28;20532;-70
2023/03/06 02:00:16;;;;;;;15.27;10.25;;;;;;;2.33;92.33;100672.38;5052646;28;20041;-70
2023/03/06 02:02:51;;;;;;;12.40;9.13;;;;;;;2.29;92.20;100675.88;5062513;28;20468;-71
2023/03/06 02:05:19;;;;;;;14.52;8.07;;;;;;;2.25;92.27;100674.13;5034310;28;20481;-70
2023/03/06 02:07:49;;;;;;;12.30;8.25;;;;;;;2.22;92.29;100676.72;5041887;28;20045;-70
2023/03/06 02:10:19;;;;;;;12.18;7.88;;;;;;;2.18;92.40;100665.44;5034747;28;20037;-71
2023/03/06 02:12:49;;;;;;;13.10;8.18;;;;;;;2.15;92.60;100655.03;5026894;28;20042;-72
2023/03/06 02:15:22;;;;;;;12.57;7.90;;;;;;;2.12;92.56;100648.09;5031899;28;20033;-71
2023/03/06 02:17:51;;;;;;;13.63;7.13;;;;;;;2.11;92.68;100642.91;5028054;28;20053;-71
2023/03/06 02:20:32;;;;;;;12.13;7.53;;;;;;;2.10;92.74;100641.16;5030677;28;20409;-71
2023/03/06 02:23:25;;;;;;;10.88;7.25;;;;;;;2.07;92.70;100636.81;5029944;28;20037;-71
2023/03/06 02:25:56;;;;;;;10.95;6.88;;;;;;;2.06;92.86;100631.59;5042054;28;20046;-71
2023/03/06 02:28:24;;;;;;;12.55;7.07;;;;;;;2.04;92.87;100626.41;5026760;28;20061;-71
2023/03/06 02:30:54;;;;;;;9.55;6.43;;;;;;;2.03;92.90;100621.22;5042672;28;20577;-72
2023/03/06 02:33:26;;;;;;;9.57;6.22;;;;;;;2.03;92.79;100629.03;5053434;28;20041;-71
2023/03/06 02:36:02;;;;;;;10.20;5.88;;;;;;;2.00;92.96;100628.16;5046365;28;20473;-71
2023/03/06 02:38:51;;;;;;;9.82;6.43;;;;;;;1.99;92.95;100633.31;5029951;28;20129;-71
2023/03/06 02:41:19;;;;;;;11.57;6.63;;;;;;;1.92;93.07;100628.97;5044313;28;20037;-72
2023/03/06 02:43:51;;;;;;;10.63;6.45;;;;;;;1.88;92.97;100628.13;5041991;28;20048;-72
2023/03/06 02:46:18;;;;;;;9.80;6.78;;;;;;;1.86;93.05;100629.84;5044318;28;20938;-71
2023/03/06 02:48:45;;;;;;;11.00;6.43;;;;;;;1.87;93.23;100631.56;5042748;28;20585;-70
2023/03/06 02:51:12;;;;;;;11.48;7.03;;;;;;;1.83;93.50;100620.31;5032623;28;20045;-70
2023/03/06 02:53:39;;;;;;;12.85;7.45;;;;;;;1.85;93.66;100623.78;5061183;28;20758;-74
2023/03/06 02:56:07;;;;;;;11.75;7.15;;;;;;;1.84;93.61;100624.66;5028649;28;20573;-71
2023/03/06 02:58:34;;;;;;;10.85;7.40;;;;;;;1.82;93.86;100634.16;5035853;28;20115;-71
2023/03/06 03:01:01;;;;;;;14.18;7.57;;;;;;;1.76;93.76;100621.16;5042522;28;20045;-71
2023/03/06 03:03:29;;;;;;;9.75;7.05;;;;;;;1.72;94.01;100629.81;5043834;28;20048;-71
2023/03/06 03:05:59;;;;;;;10.63;7.22;;;;;;;1.69;94.03;100622.00;5043299;28;20042;-70
2023/03/06 03:08:31;;;;;;;15.23;8.60;;;;;;;1.66;94.16;100628.06;5053774;28;20486;-71
2023/03/06 03:11:02;;;;;;;11.82;7.72;;;;;;;1.62;94.14;100626.34;5052741;28;20042;-70
2023/03/06 03:13:37;;;;;;;13.98;8.90;;;;;;;1.60;94.39;100614.16;5025697;28;20064;-70
2023/03/06 03:16:10;;;;;;;17.83;8.93;;;;;;;1.59;94.39;100615.03;5041034;28;20602;-70
2023/03/06 03:18:37;;;;;;;12.35;8.57;;;;;;;1.54;94.42;100615.00;5034209;28;20039;-71
2023/03/06 03:21:11;;;;;;;15.13;9.50;;;;;;;1.52;94.77;100608.97;5041848;28;20038;-71
2023/03/06 03:23:38;;;;;;;15.90;9.60;;;;;;;1.50;94.82;100602.91;5041391;28;20128;-71
2023/03/06 03:26:09;;;;;;;15.98;9.65;;;;;;;1.48;95.00;100605.47;5041378;28;20549;-71
2023/03/06 03:28:39;;;;;;;14.97;9.77;;;;;;;1.45;94.83;100604.59;5045269;28;20062;-72
2023/03/06 03:31:09;;;;;;;19.02;10.63;;;;;;;1.45;95.00;100602.00;5052323;28;20527;-70
2023/03/06 03:33:36;;;;;;;15.68;10.27;;;;;;;1.42;94.88;100594.22;5046934;28;20037;-72
2023/03/06 03:36:06;;;;;;;16.05;10.02;;;;;;;1.40;94.99;100583.81;5062752;28;20048;-72
2023/03/06 03:38:35;;;;;;;18.05;10.10;;;;;;;1.42;95.03;100586.41;5054898;28;20054;-71
2023/03/06 03:41:03;;;;;;;17.15;10.48;;;;;;;1.42;95.15;100579.47;5039402;28;20827;-71
2023/03/06 03:43:31;;;;;;;16.63;10.23;;;;;;;1.41;95.06;100566.50;5029140;28;20037;-71
2023/03/06 03:45:59;;;;;;;16.45;10.52;;;;;;;1.41;95.15;100572.53;5038619;28;20054;-71
2023/03/06 03:48:27;;;;;;;22.15;11.10;;;;;;;1.43;95.04;100564.75;5050223;28;20050;-71
2023/03/06 03:51:04;;;;;;;14.13;10.52;;;;;;;1.44;95.09;100567.38;5046658;28;20080;-71
2023/03/06 03:53:34;;;;;;;14.90;9.82;;;;;;;1.44;95.04;100567.38;5039423;28;20518;-72
2023/03/06 03:56:02;;;;;;;14.45;10.73;;;;;;;1.44;94.85;100558.69;5011003;28;20045;-71
2023/03/06 03:58:31;;;;;;;16.13;10.13;;;;;;;1.42;94.94;100547.44;5043704;28;20048;-71
2023/03/06 04:00:58;;;;;;;15.38;10.48;;;;;;;1.40;94.90;100542.22;5031742;28;20085;-71
2023/03/06 04:03:26;;;;;;;16.77;10.40;;;;;;;1.39;94.95;100556.97;5027922;28;20132;-71
2023/03/06 04:05:56;;;;;;;17.10;11.20;;;;;;;1.39;95.05;100553.47;5043454;28;20045;-74
2023/03/06 04:08:25;;;;;;;16.40;10.60;;;;;;;1.36;95.15;100549.16;5013433;28;20133;-73
2023/03/06 04:10:53;;;;;;;15.63;10.73;;;;;;;1.36;95.28;100545.72;5045693;28;20983;-74
2023/03/06 04:13:23;;;;;;;18.10;11.65;;;;;;;1.33;95.23;100549.13;5052532;28;20053;-73
2023/03/06 04:15:52;;;;;;;17.27;10.85;;;;;;;1.34;95.21;100550.03;5037223;28;20037;-75
2023/03/06 04:18:22;;;;;;;18.38;11.20;;;;;;;1.35;95.40;100541.38;5031368;28;20119;-73
2023/03/06 04:20:52;;;;;;;18.15;11.32;;;;;;;1.35;95.27;100537.03;5052227;28;20044;-72
2023/03/06 04:23:20;;;;;;;15.73;10.70;;;;;;;1.35;95.21;100539.63;5042528;28;20128;-72
2023/03/06 04:25:47;;;;;;;17.88;10.85;;;;;;;1.34;95.18;100537.88;5049648;28;20126;-73
2023/03/06 04:28:15;;;;;;;17.13;11.73;;;;;;;1.35;95.30;100536.19;5029620;28;20599;-72
2023/03/06 04:30:43;;;;;;;17.50;11.73;;;;;;;1.33;95.41;100527.50;5041844;28;20038;-75
2023/03/06 04:33:11;;;;;;;19.95;11.90;;;;;;;1.33;95.22;100528.34;5043207;28;20627;-72
2023/03/06 04:35:38;;;;;;;20.05;12.07;;;;;;;1.35;95.36;100526.63;5027641;28;20988;-71
2023/03/06 04:38:11;;;;;;;18.38;11.88;;;;;;;1.39;95.54;100528.41;5046727;28;20104;-71
2023/03/06 04:40:38;;;;;;;19.52;11.23;;;;;;;1.39;95.47;100524.91;5040441;28;20041;-72
2023/03/06 04:43:05;;;;;;;18.25;11.02;;;;;;;1.43;95.39;100530.97;5037442;28;20046;-70
2023/03/06 04:45:33;;;;;;;18.95;12.27;;;;;;;1.46;95.46;100524.09;5036405;28;20044;-72
2023/03/06 04:48:00;;;;;;;17.27;11.32;;;;;;;1.48;95.47;100527.53;5036098;28;20109;-71
2023/03/06 04:50:31;;;;;;;17.90;11.18;;;;;;;1.52;95.35;100534.47;5029476;28;20042;-72
2023/03/06 04:53:00;;;;;;;16.52;11.25;;;;;;;1.51;95.32;100511.94;5029448;28;20538;-72
2023/03/06 04:55:27;;;;;;;17.70;11.05;;;;;;;1.51;95.31;100522.34;5032624;28;20649;-72
2023/03/06 04:57:56;;;;;;;19.20;11.02;;;;;;;1.53;95.36;100522.34;5042694;28;20050;-72
2023/03/06 05:00:32;;;;;;;15.55;10.07;;;;;;;1.53;95.06;100532.72;5027479;28;20072;-73
2023/03/06 05:03:01;;;;;;;16.90;10.90;;;;;;;1.53;95.12;100533.63;5036522;28;20045;-71
2023/03/06 05:05:29;;;;;;;14.82;10.20;;;;;;;1.52;95.12;100523.22;5037972;28;20042;-73
2023/03/06 05:07:56;;;;;;;16.65;10.07;;;;;;;1.51;95.25;100517.16;5036316;28;20041;-71
2023/03/06 05:10:23;;;;;;;16.85;10.55;;;;;;;1.50;95.17;100517.16;5038681;28;20138;-71
2023/03/06 05:12:50;;;;;;;15.35;10.00;;;;;;;1.51;95.09;100511.94;5038012;28;20076;-70
2023/03/06 05:15:17;;;;;;;14.02;9.63;;;;;;;1.53;95.24;100512.81;5031607;28;20037;-70
2023/03/06 05:17:46;;;;;;;15.25;10.13;;;;;;;1.56;95.16;100519.75;5029149;28;20581;-73
2023/03/06 05:20:15;;;;;;;15.85;11.05;;;;;;;1.54;95.16;100506.78;5021103;28;20132;-72
2023/03/06 05:22:42;;;;;;;18.15;10.27;;;;;;;1.54;95.09;100504.16;5022191;28;20556;-72
2023/03/06 05:25:10;;;;;;;15.00;9.50;;;;;;;1.54;94.98;100500.69;5042287;28;20029;-71
2023/03/06 05:27:38;;;;;;;12.88;9.23;;;;;;;1.57;95.05;100505.03;5040322;28;20477;-73
2023/03/06 05:30:08;;;;;;;14.60;9.65;;;;;;;1.59;95.09;100491.19;5034199;28;20619;-73
2023/03/06 05:32:35;;;;;;;14.35;9.02;;;;;;;1.61;95.33;100498.97;5021685;28;20619;-73
2023/03/06 05:35:04;;;;;;;16.30;10.00;;;;;;;1.63;95.21;100492.06;5038648;28;20737;-73
2023/03/06 05:37:32;;;;;;;15.68;9.30;;;;;;;1.64;95.08;100493.78;5040932;28;20103;-74
2023/03/06 05:39:59;;;;;;;14.27;9.23;;;;;;;1.65;95.05;100493.78;5042718;28;20477;-74
2023/03/06 05:42:29;;;;;;;14.32;9.18;;;;;;;1.65;95.20;100485.13;5043707;28;20045;-73
2023/03/06 05:44:56;;;;;;;16.73;9.77;;;;;;;1.70;95.29;100485.97;5035061;28;20045;-73
2023/03/06 05:47:23;;;;;;;18.20;10.23;;;;;;;1.80;95.38;100479.06;5034043;28;20042;-73
2023/03/06 05:49:50;;;;;;;15.57;9.25;;;;;;;1.83;95.28;100472.13;5037648;28;20136;-73
2023/03/06 05:52:17;;;;;;;18.17;9.95;;;;;;;1.89;95.44;100473.88;5044851;28;20045;-72
2023/03/06 05:54:50;;;;;;;15.25;9.75;;;;;;;1.92;95.10;100473.00;5045573;28;20061;-73
2023/03/06 05:57:22;;;;;;;16.52;10.15;;;;;;;1.90;95.07;100464.31;5037248;28;20045;-72
2023/03/06 05:59:50;;;;;;;16.52;9.45;;;;;;;1.93;95.19;100466.94;5037680;28;20500;-72
2023/03/06 06:02:18;;;;;;;17.48;9.88;;;;;;;2.00;95.26;100466.94;5026507;28;20041;-70
2023/03/06 06:04:45;;;;;;;15.25;9.65;;;;;;;2.06;95.28;100462.56;5042581;28;20124;-71
2023/03/06 06:07:15;;;;;;;14.00;9.75;;;;;;;2.12;95.45;100466.03;5044488;28;20034;-70
2023/03/06 06:09:44;;;;;;;16.20;9.80;;;;;;;2.20;95.60;100468.63;5055744;28;20072;-70
2023/03/06 06:12:12;;;;;;;16.13;9.45;;;;;;;2.30;95.87;100470.34;5042100;28;20041;-70
2023/03/06 06:14:39;;;;;;;16.17;9.85;;;;;;;2.46;96.08;100465.09;5032801;28;20438;-70
2023/03/06 06:17:09;;;;;;;17.08;10.20;;;;;;;2.55;95.42;100467.66;5035444;28;20100;-71
2023/03/06 06:19:36;;;;;;;16.10;10.38;;;;;;;2.60;94.96;100472.84;5038599;28;20811;-71
2023/03/06 06:22:04;;;;;;;17.88;10.48;;;;;;;2.69;94.68;100472.84;5040197;28;20033;-71
2023/03/06 06:24:31;;;;;;;17.90;10.77;;;;;;;2.73;94.22;100469.34;5044599;28;20038;-70
2023/03/06 06:26:59;;;;;;;15.52;9.65;;;;;;;2.68;93.68;100473.72;5037824;28;20049;-69
2023/03/06 06:29:30;;;;;;;18.75;10.93;;;;;;;2.57;93.12;100478.94;5041692;28;20049;-70
2023/03/06 06:31:59;;;;;;;18.65;11.13;;;;;;;2.47;92.92;100474.63;5039508;28;20042;-69
2023/03/06 06:34:27;;;;;;;18.42;11.60;;;;;;;2.39;92.65;100481.59;5034689;28;20507;-70
2023/03/06 06:36:54;;;;;;;21.58;11.77;;;;;;;2.29;92.74;100484.22;5040945;28;20046;-69
2023/03/06 06:39:23;;;;;;;20.17;12.00;;;;;;;2.21;92.76;100485.09;5038767;28;20041;-70
2023/03/06 06:41:51;;;;;;;20.38;11.75;;;;;;;2.11;93.07;100469.50;5039643;28;20048;-70
2023/03/06 06:44:38;;;;;;;21.02;12.43;;;;;;;2.05;93.51;100474.72;5035334;28;20038;-70
2023/03/06 06:47:06;;;;;;;21.58;12.57;;;;;;;2.04;93.82;100470.38;5041799;28;20815;-70
2023/03/06 06:49:54;;;;;;;20.23;12.02;;;;;;;2.04;94.07;100477.31;5054875;28;20538;-69
2023/03/06 06:52:23;;;;;;;22.73;13.10;;;;;;;2.03;94.16;100473.00;5043607;28;20053;-70
2023/03/06 06:54:51;;;;;;;21.77;12.30;;;;;;;2.03;94.43;100473.00;5044528;28;20152;-70
2023/03/06 06:57:18;;;;;;;25.38;13.95;;;;;;;2.04;94.57;100477.31;5041840;28;20127;-70
2023/03/06 06:59:45;;;;;;;24.35;13.35;;;;;;;2.06;94.57;100470.38;5054364;28;20046;-70
2023/03/06 07:02:14;;;;;;;27.85;14.00;;;;;;;2.07;94.64;100479.91;5040016;28;20034;-69
2023/03/06 07:04:43;;;;;;;26.52;13.65;;;;;;;2.08;94.62;100481.66;5052110;28;20554;-70
2023/03/06 07:07:33;;;;;;;26.77;14.77;;;;;;;2.06;94.55;100484.25;5052123;28;20048;-70
2023/03/06 07:10:00;;;;;;;26.27;14.48;;;;;;;2.08;94.92;100484.25;5048337;28;20134;-70
2023/03/06 07:12:27;;;;;;;23.67;14.35;;;;;;;2.09;94.75;100485.97;5032565;28;20509;-69
2023/03/06 07:14:54;;;;;;;26.13;14.05;;;;;;;2.13;95.02;100488.56;5048447;28;20040;-69
2023/03/06 07:17:21;;;;;;;26.60;15.07;;;;;;;2.16;94.85;100492.91;5045484;28;20082;-69
2023/03/06 07:19:48;;;;;;;25.98;15.35;;;;;;;2.19;95.14;100494.66;5059120;28;20037;-69
2023/03/06 07:22:16;;;;;;;24.35;13.68;;;;;;;2.20;94.86;100492.03;5059496;28;20157;-70
2023/03/06 07:24:44;;;;;;;25.90;14.38;;;;;;;2.27;94.97;100490.31;5060255;28;20034;-69
2023/03/06 07:27:11;;;;;;;27.73;15.45;;;;;;;2.30;94.99;100491.16;5044446;28;20047;-69
2023/03/06 07:29:38;;;;;;;28.00;16.13;;;;;;;2.35;95.02;100485.94;5040748;28;20054;-70
2023/03/06 07:32:05;;;;;;;29.55;15.70;;;;;;;2.41;94.91;100491.13;5043960;28;20171;-70
2023/03/06 07:34:32;;;;;;;29.67;15.68;;;;;;;2.48;94.95;100489.38;5045429;28;21070;-68
2023/03/06 07:36:59;;;;;;;25.95;15.07;;;;;;;2.54;94.81;100489.38;5045113;28;20057;-70
2023/03/06 07:39:28;;;;;;;26.38;14.93;;;;;;;2.58;94.70;100479.81;5046099;28;20120;-70
2023/03/06 07:41:57;;;;;;;25.98;14.85;;;;;;;2.65;94.74;100484.13;5043837;28;20061;-69
2023/03/06 07:44:24;;;;;;;23.52;14.00;;;;;;;2.71;94.19;100478.03;5043637;28;20038;-69
2023/03/06 07:46:51;;;;;;;24.80;14.63;;;;;;;2.74;94.09;100494.50;5044137;28;20038;-69
2023/03/06 07:49:18;;;;;;;30.20;15.18;;;;;;;2.77;93.77;100486.69;5039410;28;20033;-69
2023/03/06 07:51:45;;;;;;;25.42;12.88;;;;;;;2.82;93.39;100485.78;5029608;28;20046;-69
2023/03/06 07:54:12;;;;;;;24.30;13.75;;;;;;;2.82;93.42;100481.47;5048197;28;20048;-69
2023/03/06 07:56:39;;;;;;;23.20;13.20;;;;;;;2.80;92.99;100485.81;5042006;28;20050;-69
2023/03/06 07:59:06;;;;;;;22.55;12.68;;;;;;;2.80;93.10;100488.41;5055301;28;20041;-69
2023/03/06 08:01:35;;;;;;;39.72;13.68;;;;;;;2.82;93.41;100494.47;5043569;28;20048;-69
2023/03/06 08:04:02;;;;;;;21.58;12.45;;;;;;;2.91;93.14;100490.94;5048192;28;20041;-71
2023/03/06 08:06:31;;;;;;;20.95;12.20;;;;;;;2.92;92.91;100497.91;5053955;28;20045;-69
2023/03/06 08:08:58;;;;;;;24.58;13.60;;;;;;;2.97;93.07;100490.94;5028773;28;20054;-69
2023/03/06 08:11:28;;;;;;;23.38;13.02;;;;;;;3.03;93.00;100501.31;5027564;28;20049;-69
2023/03/06 08:13:57;;;;;;;20.00;11.70;;;;;;;3.09;92.36;100500.44;5056965;28;20049;-69
2023/03/06 08:16:28;;;;;;;24.50;13.68;;;;;;;3.09;92.77;100495.22;5030290;28;20046;-70
2023/03/06 08:18:57;;;;;;;20.80;12.35;;;;;;;3.15;92.74;100497.81;5046735;28;20462;-69
2023/03/06 08:21:27;;;;;;;22.20;12.10;;;;;;;3.22;92.74;100498.63;5047706;28;20037;-70
2023/03/06 08:23:54;;;;;;;22.42;12.07;;;;;;;3.32;92.79;100489.88;5045653;28;20038;-70
2023/03/06 08:26:26;;;;;;;20.42;11.25;;;;;;;3.48;91.79;100498.47;5028972;28;20624;-70
2023/03/06 08:28:56;;;;;;;19.17;11.07;;;;;;;3.53;92.12;100494.09;5041692;28;20049;-70
2023/03/06 08:31:33;;;;;;;18.85;11.35;;;;;;;3.60;92.25;100489.72;5043108;28;20104;-70
2023/03/06 08:34:06;;;;;;;20.60;12.10;;;;;;;3.65;91.50;100497.50;5044875;28;20045;-69
2023/03/06 08:36:33;;;;;;;17.10;10.95;;;;;;;3.78;90.39;100493.06;5062215;28;20049;-70
2023/03/06 08:39:00;;;;;;;18.77;11.10;;;;;;;3.96;89.97;100498.13;5048140;28;20041;-70
2023/03/06 08:41:27;;;;;;;16.70;10.07;;;;;;;4.11;89.81;100496.28;5045712;28;20510;-69
2023/03/06 08:43:55;;;;;;;15.63;10.23;;;;;;;4.20;89.03;100496.19;5061736;28;20616;-69
2023/03/06 08:46:26;;;;;;;16.20;10.13;;;;;;;4.28;88.46;100494.34;5048333;28;20087;-70
2023/03/06 08:48:53;;;;;;;16.50;9.95;;;;;;;4.31;88.08;100494.34;5058303;28;20049;-70
2023/03/06 08:51:21;;;;;;;14.82;9.43;;;;;;;4.42;87.00;100493.34;5067596;28;20075;-69
2023/03/06 08:53:50;;;;;;;15.60;8.98;;;;;;;4.47;87.20;100491.56;5066190;28;20041;-70
2023/03/06 08:56:28;;;;;;;13.98;9.43;;;;;;;4.59;87.18;100494.03;5066602;28;20183;-70
2023/03/06 08:58:58;;;;;;;12.43;7.63;;;;;;;4.66;85.94;100498.28;5065995;28;20519;-69
2023/03/06 09:01:30;;;;;;;15.00;7.88;;;;;;;4.72;85.13;100492.13;5067991;28;20067;-70
2023/03/06 09:04:01;;;;;;;13.52;8.05;;;;;;;4.74;84.88;100497.34;5051823;28;20132;-70
2023/03/06 09:06:33;;;;;;;11.48;7.43;;;;;;;4.80;85.45;100492.06;5063124;28;20124;-70
2023/03/06 09:09:01;;;;;;;14.23;8.57;;;;;;;4.91;84.53;100498.03;5047190;28;20521;-70
2023/03/06 09:11:29;;;;;;;14.98;8.98;;;;;;;4.95;84.63;100491.84;5047799;28;20046;-70
2023/03/06 09:13:57;;;;;;;11.80;7.82;;;;;;;5.05;84.20;100494.34;5047540;28;20052;-70
2023/03/06 09:16:24;;;;;;;10.65;7.28;;;;;;;5.07;82.75;100488.25;5047994;28;20072;-69
2023/03/06 09:18:52;;;;;;;10.18;7.00;;;;;;;5.15;82.57;100485.50;5059462;28;20172;-70
2023/03/06 09:21:22;;;;;;;12.02;7.70;;;;;;;5.27;82.59;100487.09;5041115;28;20042;-70
2023/03/06 09:23:49;;;;;;;10.73;6.60;;;;;;;5.32;82.49;100485.28;5026267;28;20049;-70
2023/03/06 09:26:17;;;;;;;13.50;8.30;;;;;;;5.34;81.77;100478.28;5027798;28;20485;-70
2023/03/06 09:28:45;;;;;;;14.73;8.30;;;;;;;5.31;81.33;100480.06;5042170;28;20049;-70
2023/03/06 09:31:18;;;;;;;11.00;7.00;;;;;;;5.28;81.29;100492.31;5027115;28;20034;-70
2023/03/06 09:33:47;;;;;;;7.53;4.95;;;;;;;5.27;80.37;100485.34;5027323;28;20104;-70
2023/03/06 09:36:23;;;;;;;7.72;4.05;;;;;;;5.34;79.42;100485.28;5061870;28;20045;-70
2023/03/06 09:38:50;;;;;;;6.18;3.83;;;;;;;5.41;79.47;100479.91;5039212;28;20044;-70
2023/03/06 09:41:29;;;;;;;6.53;4.65;;;;;;;5.60;79.16;100479.63;5030523;28;20041;-69
2023/03/06 09:44:04;;;;;;;4.65;3.00;;;;;;;5.78;76.72;100478.47;5026068;28;20042;-70
2023/03/06 09:47:18;;;;;;;3.92;3.30;;;;;;;5.90;74.62;100473.06;5042456;28;20049;-70
2023/03/06 09:50:09;;;;;;;5.22;3.70;;;;;;;6.09;75.24;100474.53;5058801;28;20046;-70
2023/03/06 09:52:51;;;;;;;5.57;3.30;;;;;;;6.27;75.50;100478.53;5043094;28;20104;-70
2023/03/06 09:55:25;;;;;;;4.88;2.83;;;;;;;6.40;73.94;100471.34;5025737;28;20548;-70
2023/03/06 09:58:09;;;;;;;4.30;2.78;;;;;;;6.43;72.87;100476.50;5042598;28;20460;-70
2023/03/06 10:01:11;;;;;;;3.25;2.40;;;;;;;6.41;73.34;100473.09;5035640;28;20049;-70
2023/03/06 10:03:44;;;;;;;4.95;2.60;;;;;;;6.29;72.45;100479.38;5041755;28;20103;-71
2023/03/06 10:06:23;;;;;;;3.88;2.15;;;;;;;6.16;71.67;100487.47;5043446;28;20528;-69
2023/03/06 10:09:12;;;;;;;9.35;1.50;;;;;;;6.11;68.29;100486.69;5044317;28;20044;-69
2023/03/06 10:12:00;;;;;;;3.10;1.27;;;;;;;6.02;69.21;100482.47;5040942;28;20176;-69
2023/03/06 10:14:43;;;;;;;1.80;1.23;;;;;;;5.97;69.69;100483.41;5041012;28;20486;-69
2023/03/06 10:17:22;;;;;;;1.80;1.42;;;;;;;6.01;70.01;100480.75;5045672;28;20042;-70
2023/03/06 10:19:50;;;;;;;3.08;2.20;;;;;;;6.18;69.54;100482.22;5043498;28;20042;-69
2023/03/06 10:22:31;;;;;;;3.25;2.38;;;;;;;6.34;69.88;100478.41;5062168;28;20056;-70
2023/03/06 10:25:26;;;;;;;1.60;1.42;;;;;;;6.31;68.97;100483.69;5057518;28;20084;-69
2023/03/06 10:28:28;;;;;;;5.32;1.60;;;;;;;6.38;67.86;100481.84;5049476;28;20493;-70
2023/03/06 10:31:04;;;;;;;2.08;1.55;;;;;;;6.45;66.44;100478.22;5047043;28;20052;-69
2023/03/06 10:33:48;;;;;;;2.53;1.60;;;;;;;6.61;66.82;100464.81;5051991;28;20041;-69
2023/03/06 10:36:18;;;;;;;2.42;1.38;;;;;;;6.73;65.79;100482.03;5058589;28;20509;-69
2023/03/06 10:38:47;;;;;;;5.88;1.45;;;;;;;6.86;65.82;100483.53;5050602;28;20046;-70
2023/03/06 10:41:30;;;;;;;5.85;2.00;;;;;;;7.07;65.25;100482.19;5041600;28;20037;-70
2023/03/06 10:44:03;;;;;;;2.17;1.48;;;;;;;7.21;65.13;100473.19;5030247;28;20065;-71
2023/03/06 10:46:38;;;;;;;6.18;1.40;;;;;;;7.33;66.64;100475.53;5046622;28;20148;-70
2023/03/06 10:49:35;;;;;;;2.13;1.05;;;;;;;7.53;64.31;100472.44;5047851;28;20045;-70
2023/03/06 10:52:07;;;;;;;3.28;0.75;;;;;;;7.55;61.22;100475.03;5050856;28;20101;-71
2023/03/06 10:54:39;;;;;;;2.40;1.40;;;;;;;7.39;61.08;100478.00;5048873;28;20040;-70
2023/03/06 10:57:30;;;;;;;4.60;1.10;;;;;;;7.17;60.21;100475.00;5044545;28;20068;-71
2023/03/06 11:00:21;;;;;;;6.32;1.40;;;;;;;6.99;61.96;100482.38;5046776;28;20049;-69
2023/03/06 11:03:12;;;;;;;1.48;1.00;;;;;;;6.92;62.46;100483.38;5050366;28;20038;-71
2023/03/06 11:05:39;;;;;;;1.95;1.00;;;;;;;7.03;62.21;100477.94;5043112;28;20045;-70
2023/03/06 11:08:21;;;;;;;3.95;1.20;;;;;;;7.11;63.15;100476.00;5029385;28;20042;-70
2023/03/06 11:11:05;;;;;;;4.45;1.70;;;;;;;7.16;61.92;100478.53;5054550;28;20472;-70
2023/03/06 11:13:37;;;;;;;8.25;1.63;;;;;;;7.29;59.62;100484.34;5043223;28;20049;-69
2023/03/06 11:16:37;;;;;;;2.95;1.00;;;;;;;7.42;58.64;100463.97;5032362;28;20037;-69
2023/03/06 11:19:26;;;;;;;3.35;0.88;;;;;;;7.54;56.54;100470.69;5034677;28;20050;-71
2023/03/06 11:22:05;;;;;;;4.00;0.90;;;;;;;7.67;57.81;100466.00;5049120;28;20038;-70
2023/03/06 11:24:43;;;;;;;7.05;1.48;;;;;;;7.79;57.79;100470.97;5050692;28;20048;-71
2023/03/06 11:27:33;;;;;;;6.55;1.33;;;;;;;7.83;55.35;100467.38;5060267;28;20050;-71
2023/03/06 11:30:22;;;;;;;22.55;1.80;;;;;;;7.75;56.33;100469.31;5044835;28;20050;-70
2023/03/06 11:33:03;;;;;;;5.57;1.42;;;;;;;7.64;57.17;100463.44;5043364;28;20092;-69
2023/03/06 11:35:49;;;;;;;7.57;1.20;;;;;;;7.56;56.97;100466.28;5044789;28;20041;-70
2023/03/06 11:38:32;;;;;;;5.38;1.20;;;;;;;7.65;58.43;100467.81;5051817;28;20589;-69
2023/03/06 11:41:12;;;;;;;1.25;0.95;;;;;;;7.73;58.45;100461.47;5035540;28;20599;-70
2023/03/06 11:43:57;;;;;;;2.35;1.20;;;;;;;7.84;58.35;100455.94;5043268;28;20046;-71